sensor_id;sensor_type;location;lat;lon;timestamp;P1;durP1;ratioP1;P2;durP2;ratioP2
54919;SDS011;63804;53.120;8.764;2023-04-01T00:01:07;11.82;;;6.03;;
54919;SDS011;63804;53.120;8.764;2023-04-01T00:03:33;15.30;;;6.53;;
54919;SDS011;63804;53.120;8.764;2023-04-01T00:06:00;12.65;;;6.53;;
54919;SDS011;63804;53.120;8.764;2023-04-01T00:08:27;11.55;;;6.63;;
54919;SDS011;63804;53.120;8.764;2023-04-01T00:10:53;12.60;;;6.70;;
54919;SDS011;63804;53.120;8.764;2023-04-01T00:13:19;12.80;;;7.07;;
54919;SDS011;63804;53.120;8.764;2023-04-01T00:15:45;10.88;;;6.50;;
54919;SDS011;63804;53.120;8.764;2023-04-01T00:18:11;11.05;;;6.22;;
54919;SDS011;63804;53.120;8.764;2023-04-01T00:20:37;12.75;;;6.82;;
54919;SDS011;63804;53.120;8.764;2023-04-01T00:23:03;12.40;;;6.95;;
54919;SDS011;63804;53.120;8.764;2023-04-01T00:25:29;14.13;;;7.00;;
54919;SDS011;63804;53.120;8.764;2023-04-01T00:27:55;13.07;;;7.85;;
54919;SDS011;63804;53.120;8.764;2023-04-01T00:30:20;12.65;;;7.07;;
54919;SDS011;63804;53.120;8.764;2023-04-01T00:32:46;13.85;;;7.40;;
54919;SDS011;63804;53.120;8.764;2023-04-01T00:35:11;12.82;;;7.60;;
54919;SDS011;63804;53.120;8.764;2023-04-01T00:37:37;10.50;;;6.30;;
54919;SDS011;63804;53.120;8.764;2023-04-01T00:40:06;10.43;;;6.28;;
54919;SDS011;63804;53.120;8.764;2023-04-01T00:42:32;11.70;;;6.90;;
54919;SDS011;63804;53.120;8.764;2023-04-01T00:44:58;11.90;;;7.40;;
54919;SDS011;63804;53.120;8.764;2023-04-01T00:47:44;14.68;;;7.90;;
54919;SDS011;63804;53.120;8.764;2023-04-01T00:50:09;14.25;;;7.35;;
54919;SDS011;63804;53.120;8.764;2023-04-01T00:52:35;13.48;;;7.07;;
54919;SDS011;63804;53.120;8.764;2023-04-01T00:55:01;13.43;;;7.50;;
54919;SDS011;63804;53.120;8.764;2023-04-01T00:57:34;13.65;;;6.93;;
54919;SDS011;63804;53.120;8.764;2023-04-01T01:00:10;14.23;;;7.40;;
54919;SDS011;63804;53.120;8.764;2023-04-01T01:02:39;12.07;;;7.13;;
54919;SDS011;63804;53.120;8.764;2023-04-01T01:05:06;13.23;;;7.75;;
54919;SDS011;63804;53.120;8.764;2023-04-01T01:07:44;11.95;;;7.32;;
54919;SDS011;63804;53.120;8.764;2023-04-01T01:15:21;12.95;;;7.38;;
54919;SDS011;63804;53.120;8.764;2023-04-01T01:17:55;13.82;;;7.32;;
54919;SDS011;63804;53.120;8.764;2023-04-01T01:25:31;13.10;;;7.47;;
54919;SDS011;63804;53.120;8.764;2023-04-01T01:28:20;12.88;;;8.35;;
54919;SDS011;63804;53.120;8.764;2023-04-01T01:33:33;12.80;;;7.63;;
54919;SDS011;63804;53.120;8.764;2023-04-01T01:36:06;14.00;;;7.22;;
54919;SDS011;63804;53.120;8.764;2023-04-01T01:38:36;12.35;;;7.10;;
54919;SDS011;63804;53.120;8.764;2023-04-01T01:41:03;11.77;;;7.35;;
54919;SDS011;63804;53.120;8.764;2023-04-01T01:43:42;12.75;;;7.20;;
54919;SDS011;63804;53.120;8.764;2023-04-01T01:46:11;12.18;;;6.78;;
54919;SDS011;63804;53.120;8.764;2023-04-01T01:48:40;11.45;;;7.53;;
54919;SDS011;63804;53.120;8.764;2023-04-01T01:51:08;12.05;;;7.78;;
54919;SDS011;63804;53.120;8.764;2023-04-01T01:53:34;11.05;;;7.00;;
54919;SDS011;63804;53.120;8.764;2023-04-01T01:56:00;11.85;;;6.97;;
54919;SDS011;63804;53.120;8.764;2023-04-01T01:58:39;11.18;;;7.47;;
54919;SDS011;63804;53.120;8.764;2023-04-01T02:01:13;10.55;;;6.95;;
54919;SDS011;63804;53.120;8.764;2023-04-01T02:03:42;10.18;;;6.90;;
54919;SDS011;63804;53.120;8.764;2023-04-01T02:06:10;10.35;;;6.43;;
54919;SDS011;63804;53.120;8.764;2023-04-01T02:08:45;10.32;;;6.57;;
54919;SDS011;63804;53.120;8.764;2023-04-01T02:11:29;12.15;;;6.97;;
54919;SDS011;63804;53.120;8.764;2023-04-01T02:14:01;11.15;;;6.82;;
54919;SDS011;63804;53.120;8.764;2023-04-01T02:16:32;11.38;;;7.57;;
54919;SDS011;63804;53.120;8.764;2023-04-01T02:19:04;12.45;;;7.32;;
54919;SDS011;63804;53.120;8.764;2023-04-01T02:21:32;11.40;;;7.38;;
54919;SDS011;63804;53.120;8.764;2023-04-01T02:24:00;11.02;;;7.25;;
54919;SDS011;63804;53.120;8.764;2023-04-01T02:26:29;13.55;;;8.30;;
54919;SDS011;63804;53.120;8.764;2023-04-01T02:28:55;11.60;;;7.35;;
54919;SDS011;63804;53.120;8.764;2023-04-01T02:31:24;11.15;;;7.55;;
54919;SDS011;63804;53.120;8.764;2023-04-01T02:33:51;10.95;;;7.50;;
54919;SDS011;63804;53.120;8.764;2023-04-01T02:36:17;11.68;;;7.90;;
54919;SDS011;63804;53.120;8.764;2023-04-01T02:38:43;10.77;;;7.95;;
54919;SDS011;63804;53.120;8.764;2023-04-01T02:41:10;11.95;;;8.02;;
54919;SDS011;63804;53.120;8.764;2023-04-01T02:43:36;13.68;;;7.88;;
54919;SDS011;63804;53.120;8.764;2023-04-01T02:46:02;10.27;;;7.30;;
54919;SDS011;63804;53.120;8.764;2023-04-01T02:48:28;12.85;;;7.53;;
54919;SDS011;63804;53.120;8.764;2023-04-01T02:50:54;11.05;;;7.80;;
54919;SDS011;63804;53.120;8.764;2023-04-01T02:53:19;12.57;;;8.00;;
54919;SDS011;63804;53.120;8.764;2023-04-01T02:55:51;11.70;;;8.18;;
54919;SDS011;63804;53.120;8.764;2023-04-01T02:58:17;12.18;;;7.60;;
54919;SDS011;63804;53.120;8.764;2023-04-01T03:00:43;12.00;;;7.45;;
54919;SDS011;63804;53.120;8.764;2023-04-01T03:03:09;12.70;;;8.70;;
54919;SDS011;63804;53.120;8.764;2023-04-01T03:05:35;12.38;;;7.60;;
54919;SDS011;63804;53.120;8.764;2023-04-01T03:08:01;11.95;;;7.80;;
54919;SDS011;63804;53.120;8.764;2023-04-01T03:10:27;15.73;;;7.63;;
54919;SDS011;63804;53.120;8.764;2023-04-01T03:12:53;11.05;;;7.53;;
54919;SDS011;63804;53.120;8.764;2023-04-01T03:15:18;12.40;;;7.90;;
54919;SDS011;63804;53.120;8.764;2023-04-01T03:17:44;11.60;;;7.68;;
54919;SDS011;63804;53.120;8.764;2023-04-01T03:20:10;11.68;;;7.63;;
54919;SDS011;63804;53.120;8.764;2023-04-01T03:22:36;10.73;;;7.53;;
54919;SDS011;63804;53.120;8.764;2023-04-01T03:25:02;11.88;;;7.88;;
54919;SDS011;63804;53.120;8.764;2023-04-01T03:27:29;11.38;;;6.70;;
54919;SDS011;63804;53.120;8.764;2023-04-01T03:29:54;11.10;;;6.95;;
54919;SDS011;63804;53.120;8.764;2023-04-01T03:32:20;13.38;;;7.25;;
54919;SDS011;63804;53.120;8.764;2023-04-01T03:34:46;10.63;;;7.18;;
54919;SDS011;63804;53.120;8.764;2023-04-01T03:37:11;12.10;;;6.78;;
54919;SDS011;63804;53.120;8.764;2023-04-01T03:39:37;11.43;;;7.40;;
54919;SDS011;63804;53.120;8.764;2023-04-01T03:42:02;11.13;;;7.18;;
54919;SDS011;63804;53.120;8.764;2023-04-01T03:44:31;11.10;;;7.35;;
54919;SDS011;63804;53.120;8.764;2023-04-01T03:46:57;11.90;;;7.45;;
54919;SDS011;63804;53.120;8.764;2023-04-01T03:49:23;12.05;;;7.70;;
54919;SDS011;63804;53.120;8.764;2023-04-01T03:51:48;10.77;;;6.20;;
54919;SDS011;63804;53.120;8.764;2023-04-01T03:54:14;9.88;;;6.10;;
54919;SDS011;63804;53.120;8.764;2023-04-01T03:56:40;10.32;;;6.22;;
54919;SDS011;63804;53.120;8.764;2023-04-01T03:59:06;11.38;;;6.63;;
54919;SDS011;63804;53.120;8.764;2023-04-01T04:01:32;10.07;;;6.32;;
54919;SDS011;63804;53.120;8.764;2023-04-01T04:03:58;12.10;;;5.55;;
54919;SDS011;63804;53.120;8.764;2023-04-01T04:06:24;10.57;;;6.15;;
54919;SDS011;63804;53.120;8.764;2023-04-01T04:08:51;10.80;;;6.47;;
54919;SDS011;63804;53.120;8.764;2023-04-01T04:11:16;9.85;;;6.05;;
54919;SDS011;63804;53.120;8.764;2023-04-01T04:13:43;13.35;;;6.72;;
54919;SDS011;63804;53.120;8.764;2023-04-01T04:16:09;11.57;;;6.47;;
54919;SDS011;63804;53.120;8.764;2023-04-01T04:18:35;10.68;;;5.32;;
54919;SDS011;63804;53.120;8.764;2023-04-01T04:21:01;10.85;;;6.13;;
54919;SDS011;63804;53.120;8.764;2023-04-01T04:23:27;10.63;;;5.43;;
54919;SDS011;63804;53.120;8.764;2023-04-01T04:28:21;9.95;;;5.60;;
54919;SDS011;63804;53.120;8.764;2023-04-01T04:30:47;10.68;;;5.05;;
54919;SDS011;63804;53.120;8.764;2023-04-01T04:33:13;11.95;;;5.75;;
54919;SDS011;63804;53.120;8.764;2023-04-01T04:35:38;9.90;;;4.97;;
54919;SDS011;63804;53.120;8.764;2023-04-01T04:38:04;10.70;;;6.15;;
54919;SDS011;63804;53.120;8.764;2023-04-01T04:40:29;9.25;;;5.60;;
54919;SDS011;63804;53.120;8.764;2023-04-01T04:42:55;9.23;;;5.43;;
54919;SDS011;63804;53.120;8.764;2023-04-01T04:45:20;11.65;;;5.85;;
54919;SDS011;63804;53.120;8.764;2023-04-01T04:47:46;8.50;;;5.05;;
54919;SDS011;63804;53.120;8.764;2023-04-01T04:50:11;10.10;;;4.63;;
54919;SDS011;63804;53.120;8.764;2023-04-01T04:52:38;11.70;;;5.60;;
54919;SDS011;63804;53.120;8.764;2023-04-01T04:55:03;9.15;;;5.03;;
54919;SDS011;63804;53.120;8.764;2023-04-01T04:57:29;8.80;;;4.93;;
54919;SDS011;63804;53.120;8.764;2023-04-01T04:59:55;9.10;;;4.70;;
54919;SDS011;63804;53.120;8.764;2023-04-01T05:02:20;7.53;;;4.57;;
54919;SDS011;63804;53.120;8.764;2023-04-01T05:04:46;9.00;;;4.63;;
54919;SDS011;63804;53.120;8.764;2023-04-01T05:07:11;8.15;;;4.13;;
54919;SDS011;63804;53.120;8.764;2023-04-01T05:09:37;7.60;;;4.60;;
54919;SDS011;63804;53.120;8.764;2023-04-01T05:12:03;9.48;;;4.75;;
54919;SDS011;63804;53.120;8.764;2023-04-01T05:14:28;10.00;;;4.28;;
54919;SDS011;63804;53.120;8.764;2023-04-01T05:16:54;10.02;;;4.72;;
54919;SDS011;63804;53.120;8.764;2023-04-01T05:19:20;8.38;;;4.13;;
54919;SDS011;63804;53.120;8.764;2023-04-01T05:21:45;6.70;;;4.20;;
54919;SDS011;63804;53.120;8.764;2023-04-01T05:24:11;10.30;;;4.32;;
54919;SDS011;63804;53.120;8.764;2023-04-01T05:26:36;8.60;;;3.90;;
54919;SDS011;63804;53.120;8.764;2023-04-01T05:29:02;6.82;;;3.83;;
54919;SDS011;63804;53.120;8.764;2023-04-01T05:31:29;7.80;;;3.97;;
54919;SDS011;63804;53.120;8.764;2023-04-01T05:33:55;9.63;;;4.30;;
54919;SDS011;63804;53.120;8.764;2023-04-01T05:36:21;9.95;;;4.30;;
54919;SDS011;63804;53.120;8.764;2023-04-01T05:38:46;8.23;;;4.60;;
54919;SDS011;63804;53.120;8.764;2023-04-01T05:41:12;10.80;;;5.10;;
54919;SDS011;63804;53.120;8.764;2023-04-01T05:43:39;11.93;;;4.78;;
54919;SDS011;63804;53.120;8.764;2023-04-01T05:46:05;9.43;;;4.53;;
54919;SDS011;63804;53.120;8.764;2023-04-01T05:48:32;10.57;;;5.07;;
54919;SDS011;63804;53.120;8.764;2023-04-01T05:50:59;10.82;;;5.20;;
54919;SDS011;63804;53.120;8.764;2023-04-01T05:53:24;7.78;;;4.40;;
54919;SDS011;63804;53.120;8.764;2023-04-01T05:55:50;9.88;;;4.70;;
54919;SDS011;63804;53.120;8.764;2023-04-01T05:58:15;10.43;;;4.47;;
54919;SDS011;63804;53.120;8.764;2023-04-01T06:00:41;7.38;;;4.70;;
54919;SDS011;63804;53.120;8.764;2023-04-01T06:03:06;11.48;;;4.78;;
54919;SDS011;63804;53.120;8.764;2023-04-01T06:05:37;8.00;;;4.38;;
54919;SDS011;63804;53.120;8.764;2023-04-01T06:08:16;7.65;;;4.22;;
54919;SDS011;63804;53.120;8.764;2023-04-01T06:16:21;7.28;;;3.95;;
54919;SDS011;63804;53.120;8.764;2023-04-01T06:21:39;7.03;;;3.63;;
54919;SDS011;63804;53.120;8.764;2023-04-01T06:26:52;5.47;;;3.03;;
54919;SDS011;63804;53.120;8.764;2023-04-01T06:29:51;6.65;;;3.30;;
54919;SDS011;63804;53.120;8.764;2023-04-01T06:35:31;6.68;;;3.30;;
54919;SDS011;63804;53.120;8.764;2023-04-01T06:38:08;5.97;;;3.33;;
54919;SDS011;63804;53.120;8.764;2023-04-01T06:46:45;4.80;;;3.13;;
54919;SDS011;63804;53.120;8.764;2023-04-01T06:57:55;5.47;;;2.70;;
54919;SDS011;63804;53.120;8.764;2023-04-01T07:00:31;6.00;;;2.97;;
54919;SDS011;63804;53.120;8.764;2023-04-01T07:03:02;6.70;;;2.90;;
54919;SDS011;63804;53.120;8.764;2023-04-01T07:05:30;4.05;;;2.60;;
54919;SDS011;63804;53.120;8.764;2023-04-01T07:07:57;5.50;;;2.63;;
54919;SDS011;63804;53.120;8.764;2023-04-01T07:10:34;8.68;;;2.75;;
54919;SDS011;63804;53.120;8.764;2023-04-01T07:16:25;4.47;;;2.67;;
54919;SDS011;63804;53.120;8.764;2023-04-01T07:21:40;7.78;;;2.53;;
54919;SDS011;63804;53.120;8.764;2023-04-01T07:24:17;5.10;;;2.25;;
54919;SDS011;63804;53.120;8.764;2023-04-01T07:26:52;5.00;;;2.10;;
54919;SDS011;63804;53.120;8.764;2023-04-01T07:29:20;3.60;;;2.22;;
54919;SDS011;63804;53.120;8.764;2023-04-01T07:31:49;5.72;;;2.47;;
54919;SDS011;63804;53.120;8.764;2023-04-01T07:34:39;6.93;;;2.30;;
54919;SDS011;63804;53.120;8.764;2023-04-01T07:42:47;4.30;;;1.90;;
54919;SDS011;63804;53.120;8.764;2023-04-01T07:48:54;4.35;;;2.05;;
54919;SDS011;63804;53.120;8.764;2023-04-01T07:51:32;5.75;;;2.28;;
54919;SDS011;63804;53.120;8.764;2023-04-01T08:02:21;10.98;;;5.15;;
54919;SDS011;63804;53.120;8.764;2023-04-01T08:07:30;3.83;;;2.33;;
54919;SDS011;63804;53.120;8.764;2023-04-01T08:18:51;22.40;;;12.55;;
54919;SDS011;63804;53.120;8.764;2023-04-01T08:21:44;9.85;;;4.93;;
54919;SDS011;63804;53.120;8.764;2023-04-01T08:24:22;7.97;;;2.45;;
54919;SDS011;63804;53.120;8.764;2023-04-01T08:26:55;8.70;;;5.13;;
54919;SDS011;63804;53.120;8.764;2023-04-01T08:34:42;4.22;;;1.73;;
54919;SDS011;63804;53.120;8.764;2023-04-01T08:37:11;4.15;;;1.77;;
54919;SDS011;63804;53.120;8.764;2023-04-01T08:39:46;7.18;;;2.35;;
54919;SDS011;63804;53.120;8.764;2023-04-01T08:42:18;4.60;;;1.80;;
54919;SDS011;63804;53.120;8.764;2023-04-01T08:47:52;5.95;;;1.60;;
54919;SDS011;63804;53.120;8.764;2023-04-01T08:58:54;10.35;;;2.90;;
54919;SDS011;63804;53.120;8.764;2023-04-01T09:02:09;8.98;;;3.30;;
54919;SDS011;63804;53.120;8.764;2023-04-01T09:05:00;5.95;;;2.00;;
54919;SDS011;63804;53.120;8.764;2023-04-01T09:10:15;3.65;;;1.20;;
54919;SDS011;63804;53.120;8.764;2023-04-01T09:15:58;3.70;;;1.35;;
54919;SDS011;63804;53.120;8.764;2023-04-01T09:21:35;2.55;;;1.30;;
54919;SDS011;63804;53.120;8.764;2023-04-01T09:24:35;6.22;;;2.28;;
54919;SDS011;63804;53.120;8.764;2023-04-01T09:27:17;9.82;;;3.22;;
54919;SDS011;63804;53.120;8.764;2023-04-01T09:35:24;9.00;;;2.08;;
54919;SDS011;63804;53.120;8.764;2023-04-01T09:37:55;4.25;;;1.55;;
54919;SDS011;63804;53.120;8.764;2023-04-01T09:42:53;1.95;;;1.20;;
54919;SDS011;63804;53.120;8.764;2023-04-01T09:51:01;3.25;;;1.10;;
54919;SDS011;63804;53.120;8.764;2023-04-01T09:59:01;1.48;;;0.90;;
54919;SDS011;63804;53.120;8.764;2023-04-01T10:18:49;1.73;;;0.45;;
54919;SDS011;63804;53.120;8.764;2023-04-01T10:21:37;0.50;;;0.30;;
54919;SDS011;63804;53.120;8.764;2023-04-01T10:26:57;0.73;;;0.45;;
54919;SDS011;63804;53.120;8.764;2023-04-01T10:40:36;0.63;;;0.43;;
54919;SDS011;63804;53.120;8.764;2023-04-01T10:53:58;1.17;;;0.47;;
54919;SDS011;63804;53.120;8.764;2023-04-01T11:00:01;0.57;;;0.30;;
54919;SDS011;63804;53.120;8.764;2023-04-01T11:02:56;0.30;;;0.30;;
54919;SDS011;63804;53.120;8.764;2023-04-01T11:11:56;1.25;;;0.30;;
54919;SDS011;63804;53.120;8.764;2023-04-01T11:14:21;1.02;;;0.47;;
54919;SDS011;63804;53.120;8.764;2023-04-01T11:24:51;1.17;;;0.63;;
54919;SDS011;63804;53.120;8.764;2023-04-01T11:27:38;0.90;;;0.55;;
54919;SDS011;63804;53.120;8.764;2023-04-01T11:46:19;1.80;;;0.57;;
54919;SDS011;63804;53.120;8.764;2023-04-01T11:52:21;1.30;;;0.60;;
54919;SDS011;63804;53.120;8.764;2023-04-01T11:55:15;3.10;;;0.55;;
54919;SDS011;63804;53.120;8.764;2023-04-01T12:05:54;2.25;;;0.65;;
54919;SDS011;63804;53.120;8.764;2023-04-01T12:08:45;1.27;;;0.77;;
54919;SDS011;63804;53.120;8.764;2023-04-01T12:11:22;1.73;;;0.60;;
54919;SDS011;63804;53.120;8.764;2023-04-01T12:16:42;1.00;;;0.70;;
54919;SDS011;63804;53.120;8.764;2023-04-01T12:19:40;1.02;;;0.70;;
54919;SDS011;63804;53.120;8.764;2023-04-01T12:36:46;1.38;;;0.70;;
54919;SDS011;63804;53.120;8.764;2023-04-01T12:39:22;2.53;;;0.90;;
54919;SDS011;63804;53.120;8.764;2023-04-01T12:53:37;1.65;;;0.80;;
54919;SDS011;63804;53.120;8.764;2023-04-01T13:08:05;1.35;;;0.50;;
54919;SDS011;63804;53.120;8.764;2023-04-01T13:16:16;1.38;;;0.60;;
54919;SDS011;63804;53.120;8.764;2023-04-01T13:19:03;0.93;;;0.50;;
54919;SDS011;63804;53.120;8.764;2023-04-01T13:21:56;1.27;;;0.50;;
54919;SDS011;63804;53.120;8.764;2023-04-01T13:24:31;1.95;;;0.50;;
54919;SDS011;63804;53.120;8.764;2023-04-01T13:30:02;0.70;;;0.60;;
54919;SDS011;63804;53.120;8.764;2023-04-01T13:32:47;1.08;;;0.50;;
54919;SDS011;63804;53.120;8.764;2023-04-01T13:35:29;0.80;;;0.47;;
54919;SDS011;63804;53.120;8.764;2023-04-01T13:38:05;2.97;;;0.70;;
54919;SDS011;63804;53.120;8.764;2023-04-01T13:41:05;3.00;;;0.50;;
54919;SDS011;63804;53.120;8.764;2023-04-01T13:52:08;1.27;;;0.40;;
54919;SDS011;63804;53.120;8.764;2023-04-01T13:54:44;1.30;;;0.50;;
54919;SDS011;63804;53.120;8.764;2023-04-01T13:57:31;0.95;;;0.50;;
54919;SDS011;63804;53.120;8.764;2023-04-01T14:05:43;2.60;;;0.80;;
54919;SDS011;63804;53.120;8.764;2023-04-01T14:11:13;0.68;;;0.50;;
54919;SDS011;63804;53.120;8.764;2023-04-01T14:17:21;1.73;;;0.70;;
54919;SDS011;63804;53.120;8.764;2023-04-01T14:20:15;0.82;;;0.70;;
54919;SDS011;63804;53.120;8.764;2023-04-01T14:28:39;1.50;;;0.70;;
54919;SDS011;63804;53.120;8.764;2023-04-01T14:31:18;1.75;;;1.00;;
54919;SDS011;63804;53.120;8.764;2023-04-01T14:41:53;3.17;;;1.20;;
54919;SDS011;63804;53.120;8.764;2023-04-01T14:49:46;3.30;;;1.60;;
54919;SDS011;63804;53.120;8.764;2023-04-01T14:52:28;4.57;;;1.80;;
54919;SDS011;63804;53.120;8.764;2023-04-01T14:54:59;5.72;;;2.00;;
54919;SDS011;63804;53.120;8.764;2023-04-01T15:00:00;2.58;;;1.58;;
54919;SDS011;63804;53.120;8.764;2023-04-01T15:07:43;3.58;;;1.75;;
54919;SDS011;63804;53.120;8.764;2023-04-01T15:13:14;7.50;;;2.47;;
54919;SDS011;63804;53.120;8.764;2023-04-01T15:19:41;4.00;;;2.13;;
54919;SDS011;63804;53.120;8.764;2023-04-01T15:33:50;5.47;;;2.40;;
54919;SDS011;63804;53.120;8.764;2023-04-01T15:36:41;4.97;;;2.50;;
54919;SDS011;63804;53.120;8.764;2023-04-01T15:39:18;4.75;;;2.63;;
54919;SDS011;63804;53.120;8.764;2023-04-01T15:55:37;4.03;;;1.90;;
54919;SDS011;63804;53.120;8.764;2023-04-01T15:58:20;4.13;;;2.00;;
54919;SDS011;63804;53.120;8.764;2023-04-01T16:03:51;4.72;;;1.67;;
54919;SDS011;63804;53.120;8.764;2023-04-01T16:06:24;4.00;;;1.70;;
54919;SDS011;63804;53.120;8.764;2023-04-01T16:11:47;2.45;;;1.48;;
54919;SDS011;63804;53.120;8.764;2023-04-01T16:14:29;3.75;;;1.58;;
54919;SDS011;63804;53.120;8.764;2023-04-01T16:17:36;3.47;;;1.92;;
54919;SDS011;63804;53.120;8.764;2023-04-01T16:20:20;5.07;;;2.00;;
54919;SDS011;63804;53.120;8.764;2023-04-01T16:23:10;3.38;;;1.60;;
54919;SDS011;63804;53.120;8.764;2023-04-01T16:25:57;6.25;;;2.50;;
54919;SDS011;63804;53.120;8.764;2023-04-01T16:28:32;3.67;;;1.85;;
54919;SDS011;63804;53.120;8.764;2023-04-01T16:31:32;3.70;;;1.40;;
54919;SDS011;63804;53.120;8.764;2023-04-01T16:39:47;4.97;;;2.10;;
54919;SDS011;63804;53.120;8.764;2023-04-01T16:42:22;3.50;;;1.63;;
54919;SDS011;63804;53.120;8.764;2023-04-01T16:44:54;3.38;;;1.63;;
54919;SDS011;63804;53.120;8.764;2023-04-01T16:50:39;2.38;;;1.52;;
54919;SDS011;63804;53.120;8.764;2023-04-01T16:58:14;6.57;;;2.10;;
54919;SDS011;63804;53.120;8.764;2023-04-01T17:00:55;6.43;;;2.30;;
54919;SDS011;63804;53.120;8.764;2023-04-01T17:03:36;5.05;;;2.63;;
54919;SDS011;63804;53.120;8.764;2023-04-01T17:19:49;4.72;;;2.15;;
54919;SDS011;63804;53.120;8.764;2023-04-01T17:22:47;5.22;;;2.40;;
54919;SDS011;63804;53.120;8.764;2023-04-01T17:25:45;4.95;;;2.40;;
54919;SDS011;63804;53.120;8.764;2023-04-01T17:49:44;6.97;;;2.80;;
54919;SDS011;63804;53.120;8.764;2023-04-01T18:01:17;6.72;;;2.92;;
54919;SDS011;63804;53.120;8.764;2023-04-01T18:03:55;7.22;;;2.60;;
54919;SDS011;63804;53.120;8.764;2023-04-01T18:08:59;5.10;;;2.35;;
54919;SDS011;63804;53.120;8.764;2023-04-01T18:19:27;5.10;;;2.33;;
54919;SDS011;63804;53.120;8.764;2023-04-01T18:22:09;7.55;;;2.60;;
54919;SDS011;63804;53.120;8.764;2023-04-01T18:25:21;7.22;;;2.58;;
54919;SDS011;63804;53.120;8.764;2023-04-01T18:27:58;6.85;;;2.70;;
54919;SDS011;63804;53.120;8.764;2023-04-01T18:30:40;7.03;;;2.80;;
54919;SDS011;63804;53.120;8.764;2023-04-01T18:33:16;8.10;;;3.40;;
54919;SDS011;63804;53.120;8.764;2023-04-01T18:35:53;7.38;;;3.20;;
54919;SDS011;63804;53.120;8.764;2023-04-01T18:38:35;8.57;;;3.67;;
54919;SDS011;63804;53.120;8.764;2023-04-01T18:41:15;6.30;;;3.33;;
54919;SDS011;63804;53.120;8.764;2023-04-01T18:46:38;7.82;;;3.38;;
54919;SDS011;63804;53.120;8.764;2023-04-01T18:51:57;10.10;;;3.58;;
54919;SDS011;63804;53.120;8.764;2023-04-01T19:00:19;9.70;;;3.60;;
54919;SDS011;63804;53.120;8.764;2023-04-01T19:05:49;8.75;;;3.65;;
54919;SDS011;63804;53.120;8.764;2023-04-01T19:08:31;8.38;;;3.33;;
54919;SDS011;63804;53.120;8.764;2023-04-01T19:11:15;7.40;;;2.92;;
54919;SDS011;63804;53.120;8.764;2023-04-01T19:26:04;13.15;;;5.80;;
54919;SDS011;63804;53.120;8.764;2023-04-01T19:31:37;10.95;;;5.53;;
54919;SDS011;63804;53.120;8.764;2023-04-01T19:36:54;13.38;;;5.65;;
54919;SDS011;63804;53.120;8.764;2023-04-01T19:42:37;12.30;;;5.00;;
54919;SDS011;63804;53.120;8.764;2023-04-01T19:56:21;9.82;;;4.00;;
54919;SDS011;63804;53.120;8.764;2023-04-01T20:04:08;13.27;;;4.35;;
54919;SDS011;63804;53.120;8.764;2023-04-01T20:09:43;8.70;;;4.00;;
54919;SDS011;63804;53.120;8.764;2023-04-01T20:14:51;9.68;;;3.83;;
54919;SDS011;63804;53.120;8.764;2023-04-01T20:41:37;8.88;;;3.00;;
54919;SDS011;63804;53.120;8.764;2023-04-01T20:44:31;8.32;;;3.03;;
54919;SDS011;63804;53.120;8.764;2023-04-01T20:50:32;9.07;;;3.67;;
54919;SDS011;63804;53.120;8.764;2023-04-01T20:58:57;7.63;;;3.45;;
54919;SDS011;63804;53.120;8.764;2023-04-01T21:15:57;8.65;;;3.60;;
54919;SDS011;63804;53.120;8.764;2023-04-01T21:24:03;9.93;;;3.92;;
54919;SDS011;63804;53.120;8.764;2023-04-01T21:26:53;9.30;;;3.50;;
54919;SDS011;63804;53.120;8.764;2023-04-01T22:06:56;7.97;;;2.53;;
54919;SDS011;63804;53.120;8.764;2023-04-01T22:09:58;9.20;;;2.85;;
54919;SDS011;63804;53.120;8.764;2023-04-01T22:18:36;4.60;;;2.20;;
54919;SDS011;63804;53.120;8.764;2023-04-01T22:26:45;7.18;;;2.40;;
54919;SDS011;63804;53.120;8.764;2023-04-01T22:32:09;8.60;;;2.67;;
54919;SDS011;63804;53.120;8.764;2023-04-01T22:37:18;7.22;;;2.45;;
54919;SDS011;63804;53.120;8.764;2023-04-01T22:42:31;7.40;;;2.80;;
54919;SDS011;63804;53.120;8.764;2023-04-01T22:50:31;8.52;;;2.58;;
54919;SDS011;63804;53.120;8.764;2023-04-01T22:53:07;7.20;;;2.58;;
54919;SDS011;63804;53.120;8.764;2023-04-01T22:55:42;11.65;;;2.97;;
54919;SDS011;63804;53.120;8.764;2023-04-01T22:58:32;9.40;;;3.00;;
54919;SDS011;63804;53.120;8.764;2023-04-01T23:01:00;8.15;;;2.58;;
54919;SDS011;63804;53.120;8.764;2023-04-01T23:03:36;7.63;;;3.10;;
54919;SDS011;63804;53.120;8.764;2023-04-01T23:06:06;8.20;;;2.75;;
54919;SDS011;63804;53.120;8.764;2023-04-01T23:08:37;9.02;;;3.15;;
54919;SDS011;63804;53.120;8.764;2023-04-01T23:11:14;8.32;;;2.65;;
54919;SDS011;63804;53.120;8.764;2023-04-01T23:13:44;8.40;;;2.95;;
54919;SDS011;63804;53.120;8.764;2023-04-01T23:18:59;8.18;;;2.70;;
54919;SDS011;63804;53.120;8.764;2023-04-01T23:21:41;9.60;;;2.85;;
54919;SDS011;63804;53.120;8.764;2023-04-01T23:24:36;7.10;;;2.53;;
54919;SDS011;63804;53.120;8.764;2023-04-01T23:27:29;8.85;;;2.45;;
54919;SDS011;63804;53.120;8.764;2023-04-01T23:30:04;6.18;;;2.38;;
54919;SDS011;63804;53.120;8.764;2023-04-01T23:33:08;8.30;;;2.42;;
54919;SDS011;63804;53.120;8.764;2023-04-01T23:35:45;7.63;;;2.30;;
54919;SDS011;63804;53.120;8.764;2023-04-01T23:38:13;5.95;;;1.92;;
54919;SDS011;63804;53.120;8.764;2023-04-01T23:40:39;7.72;;;2.55;;
54919;SDS011;63804;53.120;8.764;2023-04-01T23:43:17;4.40;;;2.08;;
54919;SDS011;63804;53.120;8.764;2023-04-01T23:45:52;6.28;;;2.03;;
54919;SDS011;63804;53.120;8.764;2023-04-01T23:48:21;7.88;;;1.88;;
54919;SDS011;63804;53.120;8.764;2023-04-01T23:50:53;7.13;;;1.70;;
54919;SDS011;63804;53.120;8.764;2023-04-01T23:53:20;5.30;;;1.70;;
54919;SDS011;63804;53.120;8.764;2023-04-01T23:55:50;7.57;;;1.92;;
54919;SDS011;63804;53.120;8.764;2023-04-01T23:59:18;8.73;;;2.25;;
